sensor_id;sensor_type;location;lat;lon;timestamp;P1;durP1;ratioP1;P2;durP2;ratioP2
20391;SDS011;10355;53.688;10.078;2022-12-19T00:00:05;20.30;;;8.93;;
20391;SDS011;10355;53.688;10.078;2022-12-19T00:02:55;17.10;;;8.68;;
20391;SDS011;10355;53.688;10.078;2022-12-19T00:05:42;16.90;;;8.73;;
20391;SDS011;10355;53.688;10.078;2022-12-19T00:08:24;18.00;;;8.98;;
20391;SDS011;10355;53.688;10.078;2022-12-19T00:11:08;19.50;;;8.95;;
20391;SDS011;10355;53.688;10.078;2022-12-19T00:13:51;19.02;;;8.25;;
20391;SDS011;10355;53.688;10.078;2022-12-19T00:16:34;16.50;;;8.15;;
20391;SDS011;10355;53.688;10.078;2022-12-19T00:19:17;18.90;;;8.85;;
20391;SDS011;10355;53.688;10.078;2022-12-19T00:22:01;17.60;;;9.00;;
20391;SDS011;10355;53.688;10.078;2022-12-19T00:24:49;17.63;;;8.38;;
20391;SDS011;10355;53.688;10.078;2022-12-19T00:27:33;18.38;;;8.63;;
20391;SDS011;10355;53.688;10.078;2022-12-19T00:30:15;17.42;;;8.30;;
20391;SDS011;10355;53.688;10.078;2022-12-19T00:32:58;18.10;;;8.35;;
20391;SDS011;10355;53.688;10.078;2022-12-19T00:35:41;20.15;;;9.05;;
20391;SDS011;10355;53.688;10.078;2022-12-19T00:38:25;16.95;;;8.23;;
20391;SDS011;10355;53.688;10.078;2022-12-19T00:41:09;16.45;;;8.55;;
20391;SDS011;10355;53.688;10.078;2022-12-19T00:43:52;16.85;;;8.57;;
20391;SDS011;10355;53.688;10.078;2022-12-19T00:46:35;20.85;;;8.65;;
20391;SDS011;10355;53.688;10.078;2022-12-19T00:49:17;19.20;;;9.07;;
20391;SDS011;10355;53.688;10.078;2022-12-19T00:52:00;19.40;;;9.07;;
20391;SDS011;10355;53.688;10.078;2022-12-19T00:54:45;15.18;;;8.38;;
20391;SDS011;10355;53.688;10.078;2022-12-19T00:57:28;17.05;;;8.40;;
20391;SDS011;10355;53.688;10.078;2022-12-19T01:00:11;16.35;;;7.78;;
20391;SDS011;10355;53.688;10.078;2022-12-19T01:02:53;18.90;;;8.57;;
20391;SDS011;10355;53.688;10.078;2022-12-19T01:05:36;16.33;;;8.25;;
20391;SDS011;10355;53.688;10.078;2022-12-19T01:08:22;17.23;;;8.55;;
20391;SDS011;10355;53.688;10.078;2022-12-19T01:11:08;15.98;;;8.57;;
20391;SDS011;10355;53.688;10.078;2022-12-19T01:13:50;16.73;;;8.43;;
20391;SDS011;10355;53.688;10.078;2022-12-19T01:16:32;18.65;;;8.35;;
20391;SDS011;10355;53.688;10.078;2022-12-19T01:19:14;18.60;;;8.63;;
20391;SDS011;10355;53.688;10.078;2022-12-19T01:21:57;15.40;;;8.25;;
20391;SDS011;10355;53.688;10.078;2022-12-19T01:24:40;16.35;;;8.15;;
20391;SDS011;10355;53.688;10.078;2022-12-19T01:27:24;17.20;;;8.13;;
20391;SDS011;10355;53.688;10.078;2022-12-19T01:30:07;17.30;;;8.40;;
20391;SDS011;10355;53.688;10.078;2022-12-19T01:32:51;16.83;;;8.90;;
20391;SDS011;10355;53.688;10.078;2022-12-19T01:35:34;16.30;;;8.30;;
20391;SDS011;10355;53.688;10.078;2022-12-19T01:38:18;17.58;;;8.40;;
20391;SDS011;10355;53.688;10.078;2022-12-19T01:41:01;15.35;;;7.75;;
20391;SDS011;10355;53.688;10.078;2022-12-19T01:43:54;18.77;;;8.25;;
20391;SDS011;10355;53.688;10.078;2022-12-19T01:46:38;15.98;;;8.05;;
20391;SDS011;10355;53.688;10.078;2022-12-19T01:49:25;18.27;;;8.55;;
20391;SDS011;10355;53.688;10.078;2022-12-19T01:52:08;16.65;;;8.27;;
20391;SDS011;10355;53.688;10.078;2022-12-19T01:55:04;16.63;;;8.63;;
20391;SDS011;10355;53.688;10.078;2022-12-19T01:57:47;17.02;;;8.40;;
20391;SDS011;10355;53.688;10.078;2022-12-19T02:00:31;18.67;;;8.60;;
20391;SDS011;10355;53.688;10.078;2022-12-19T02:03:14;19.20;;;8.43;;
20391;SDS011;10355;53.688;10.078;2022-12-19T02:05:59;15.95;;;7.93;;
20391;SDS011;10355;53.688;10.078;2022-12-19T02:08:42;16.17;;;7.90;;
20391;SDS011;10355;53.688;10.078;2022-12-19T02:11:25;16.70;;;7.95;;
20391;SDS011;10355;53.688;10.078;2022-12-19T02:14:08;16.50;;;8.60;;
20391;SDS011;10355;53.688;10.078;2022-12-19T02:16:53;18.35;;;8.43;;
20391;SDS011;10355;53.688;10.078;2022-12-19T02:22:44;18.58;;;8.77;;
20391;SDS011;10355;53.688;10.078;2022-12-19T02:31:31;18.55;;;8.15;;
20391;SDS011;10355;53.688;10.078;2022-12-19T02:34:18;16.02;;;8.18;;
20391;SDS011;10355;53.688;10.078;2022-12-19T02:37:16;17.98;;;7.75;;
20391;SDS011;10355;53.688;10.078;2022-12-19T02:40:01;17.83;;;8.38;;
20391;SDS011;10355;53.688;10.078;2022-12-19T02:42:46;16.52;;;7.88;;
20391;SDS011;10355;53.688;10.078;2022-12-19T02:45:31;14.80;;;7.68;;
20391;SDS011;10355;53.688;10.078;2022-12-19T02:48:16;16.63;;;8.25;;
20391;SDS011;10355;53.688;10.078;2022-12-19T02:51:00;18.58;;;8.57;;
20391;SDS011;10355;53.688;10.078;2022-12-19T02:53:45;16.75;;;8.00;;
20391;SDS011;10355;53.688;10.078;2022-12-19T02:56:33;16.52;;;7.80;;
20391;SDS011;10355;53.688;10.078;2022-12-19T02:59:24;14.45;;;7.28;;
20391;SDS011;10355;53.688;10.078;2022-12-19T03:02:13;13.13;;;7.15;;
20391;SDS011;10355;53.688;10.078;2022-12-19T03:05:01;13.77;;;7.43;;
20391;SDS011;10355;53.688;10.078;2022-12-19T03:07:48;18.02;;;8.55;;
20391;SDS011;10355;53.688;10.078;2022-12-19T03:10:33;14.52;;;7.80;;
20391;SDS011;10355;53.688;10.078;2022-12-19T03:13:17;15.02;;;7.90;;
20391;SDS011;10355;53.688;10.078;2022-12-19T03:16:02;18.88;;;8.95;;
20391;SDS011;10355;53.688;10.078;2022-12-19T03:18:45;18.23;;;8.48;;
20391;SDS011;10355;53.688;10.078;2022-12-19T03:21:31;15.73;;;8.00;;
20391;SDS011;10355;53.688;10.078;2022-12-19T03:24:15;17.23;;;8.23;;
20391;SDS011;10355;53.688;10.078;2022-12-19T03:27:00;16.20;;;8.00;;
20391;SDS011;10355;53.688;10.078;2022-12-19T03:29:44;15.13;;;7.75;;
20391;SDS011;10355;53.688;10.078;2022-12-19T03:32:28;14.23;;;7.70;;
20391;SDS011;10355;53.688;10.078;2022-12-19T03:35:13;18.15;;;8.23;;
20391;SDS011;10355;53.688;10.078;2022-12-19T03:38:00;18.10;;;8.02;;
20391;SDS011;10355;53.688;10.078;2022-12-19T03:40:43;17.45;;;8.20;;
20391;SDS011;10355;53.688;10.078;2022-12-19T03:43:26;14.10;;;7.22;;
20391;SDS011;10355;53.688;10.078;2022-12-19T03:46:09;17.13;;;7.97;;
20391;SDS011;10355;53.688;10.078;2022-12-19T03:48:54;14.13;;;7.55;;
20391;SDS011;10355;53.688;10.078;2022-12-19T03:51:39;14.30;;;7.38;;
20391;SDS011;10355;53.688;10.078;2022-12-19T03:54:25;15.85;;;8.18;;
20391;SDS011;10355;53.688;10.078;2022-12-19T03:57:09;14.63;;;7.45;;
20391;SDS011;10355;53.688;10.078;2022-12-19T03:59:54;16.15;;;7.32;;
20391;SDS011;10355;53.688;10.078;2022-12-19T04:02:38;16.90;;;8.30;;
20391;SDS011;10355;53.688;10.078;2022-12-19T04:05:22;16.90;;;7.97;;
20391;SDS011;10355;53.688;10.078;2022-12-19T04:08:06;14.80;;;7.45;;
20391;SDS011;10355;53.688;10.078;2022-12-19T04:10:52;13.48;;;7.22;;
20391;SDS011;10355;53.688;10.078;2022-12-19T04:13:36;13.60;;;6.95;;
20391;SDS011;10355;53.688;10.078;2022-12-19T04:16:22;16.55;;;7.45;;
20391;SDS011;10355;53.688;10.078;2022-12-19T04:19:07;14.23;;;6.97;;
20391;SDS011;10355;53.688;10.078;2022-12-19T04:21:52;12.77;;;7.40;;
20391;SDS011;10355;53.688;10.078;2022-12-19T04:24:37;13.40;;;6.95;;
20391;SDS011;10355;53.688;10.078;2022-12-19T04:27:23;15.73;;;7.22;;
20391;SDS011;10355;53.688;10.078;2022-12-19T04:30:06;16.25;;;7.82;;
20391;SDS011;10355;53.688;10.078;2022-12-19T04:32:49;14.00;;;7.70;;
20391;SDS011;10355;53.688;10.078;2022-12-19T04:35:32;12.95;;;7.22;;
20391;SDS011;10355;53.688;10.078;2022-12-19T04:38:15;13.80;;;8.00;;
20391;SDS011;10355;53.688;10.078;2022-12-19T04:41:05;15.20;;;7.43;;
20391;SDS011;10355;53.688;10.078;2022-12-19T04:43:50;13.43;;;7.13;;
20391;SDS011;10355;53.688;10.078;2022-12-19T04:46:32;15.45;;;7.05;;
20391;SDS011;10355;53.688;10.078;2022-12-19T04:49:15;13.55;;;7.38;;
20391;SDS011;10355;53.688;10.078;2022-12-19T04:51:57;13.40;;;7.45;;
20391;SDS011;10355;53.688;10.078;2022-12-19T04:54:40;14.93;;;7.55;;
20391;SDS011;10355;53.688;10.078;2022-12-19T04:57:23;14.65;;;6.88;;
20391;SDS011;10355;53.688;10.078;2022-12-19T05:00:08;15.27;;;6.47;;
20391;SDS011;10355;53.688;10.078;2022-12-19T05:02:51;15.23;;;7.45;;
20391;SDS011;10355;53.688;10.078;2022-12-19T05:05:34;13.57;;;6.80;;
20391;SDS011;10355;53.688;10.078;2022-12-19T05:08:16;14.43;;;6.82;;
20391;SDS011;10355;53.688;10.078;2022-12-19T05:10:59;12.90;;;6.75;;
20391;SDS011;10355;53.688;10.078;2022-12-19T05:13:42;13.77;;;7.35;;
20391;SDS011;10355;53.688;10.078;2022-12-19T05:16:26;12.00;;;7.15;;
20391;SDS011;10355;53.688;10.078;2022-12-19T05:19:09;14.73;;;7.47;;
20391;SDS011;10355;53.688;10.078;2022-12-19T05:21:52;13.48;;;6.88;;
20391;SDS011;10355;53.688;10.078;2022-12-19T05:24:34;13.68;;;7.13;;
20391;SDS011;10355;53.688;10.078;2022-12-19T05:27:17;13.88;;;7.22;;
20391;SDS011;10355;53.688;10.078;2022-12-19T05:30:00;13.95;;;7.53;;
20391;SDS011;10355;53.688;10.078;2022-12-19T05:32:44;12.75;;;7.15;;
20391;SDS011;10355;53.688;10.078;2022-12-19T05:35:26;16.17;;;7.10;;
20391;SDS011;10355;53.688;10.078;2022-12-19T05:38:09;14.50;;;7.35;;
20391;SDS011;10355;53.688;10.078;2022-12-19T05:40:51;13.57;;;6.72;;
20391;SDS011;10355;53.688;10.078;2022-12-19T05:43:34;14.13;;;7.50;;
20391;SDS011;10355;53.688;10.078;2022-12-19T05:46:17;13.60;;;7.22;;
20391;SDS011;10355;53.688;10.078;2022-12-19T05:49:01;11.38;;;6.13;;
20391;SDS011;10355;53.688;10.078;2022-12-19T05:51:45;12.30;;;6.60;;
20391;SDS011;10355;53.688;10.078;2022-12-19T05:54:28;14.43;;;7.05;;
20391;SDS011;10355;53.688;10.078;2022-12-19T05:57:11;13.13;;;6.75;;
20391;SDS011;10355;53.688;10.078;2022-12-19T05:59:54;13.25;;;6.55;;
20391;SDS011;10355;53.688;10.078;2022-12-19T06:02:36;13.25;;;7.10;;
20391;SDS011;10355;53.688;10.078;2022-12-19T06:05:20;12.30;;;6.70;;
20391;SDS011;10355;53.688;10.078;2022-12-19T06:08:03;14.75;;;6.68;;
20391;SDS011;10355;53.688;10.078;2022-12-19T06:10:46;12.30;;;6.90;;
20391;SDS011;10355;53.688;10.078;2022-12-19T06:13:29;13.30;;;6.47;;
20391;SDS011;10355;53.688;10.078;2022-12-19T06:16:13;11.38;;;6.45;;
20391;SDS011;10355;53.688;10.078;2022-12-19T06:18:56;12.75;;;6.78;;
20391;SDS011;10355;53.688;10.078;2022-12-19T06:21:40;12.95;;;6.57;;
20391;SDS011;10355;53.688;10.078;2022-12-19T06:24:28;13.98;;;7.00;;
20391;SDS011;10355;53.688;10.078;2022-12-19T06:27:11;15.05;;;6.63;;
20391;SDS011;10355;53.688;10.078;2022-12-19T06:29:54;13.00;;;6.63;;
20391;SDS011;10355;53.688;10.078;2022-12-19T06:32:37;12.05;;;6.75;;
20391;SDS011;10355;53.688;10.078;2022-12-19T06:35:19;14.25;;;6.70;;
20391;SDS011;10355;53.688;10.078;2022-12-19T06:38:03;13.57;;;6.15;;
20391;SDS011;10355;53.688;10.078;2022-12-19T06:40:46;12.48;;;6.60;;
20391;SDS011;10355;53.688;10.078;2022-12-19T06:43:46;15.63;;;6.97;;
20391;SDS011;10355;53.688;10.078;2022-12-19T06:46:34;13.70;;;7.22;;
20391;SDS011;10355;53.688;10.078;2022-12-19T06:49:16;14.50;;;6.47;;
20391;SDS011;10355;53.688;10.078;2022-12-19T06:51:59;12.60;;;6.65;;
20391;SDS011;10355;53.688;10.078;2022-12-19T06:54:50;12.65;;;6.63;;
20391;SDS011;10355;53.688;10.078;2022-12-19T06:57:33;10.80;;;6.28;;
20391;SDS011;10355;53.688;10.078;2022-12-19T07:00:16;11.73;;;6.32;;
20391;SDS011;10355;53.688;10.078;2022-12-19T07:02:59;12.85;;;6.88;;
20391;SDS011;10355;53.688;10.078;2022-12-19T07:05:41;11.07;;;6.68;;
20391;SDS011;10355;53.688;10.078;2022-12-19T07:08:24;11.77;;;6.88;;
20391;SDS011;10355;53.688;10.078;2022-12-19T07:11:08;12.15;;;6.68;;
20391;SDS011;10355;53.688;10.078;2022-12-19T07:13:50;13.50;;;6.72;;
20391;SDS011;10355;53.688;10.078;2022-12-19T07:16:33;11.40;;;6.28;;
20391;SDS011;10355;53.688;10.078;2022-12-19T07:19:16;12.75;;;6.53;;
20391;SDS011;10355;53.688;10.078;2022-12-19T07:21:59;12.88;;;6.70;;
20391;SDS011;10355;53.688;10.078;2022-12-19T07:24:42;10.50;;;6.10;;
20391;SDS011;10355;53.688;10.078;2022-12-19T07:27:26;13.23;;;6.40;;
20391;SDS011;10355;53.688;10.078;2022-12-19T07:30:16;14.07;;;6.65;;
20391;SDS011;10355;53.688;10.078;2022-12-19T07:32:58;12.52;;;6.32;;
20391;SDS011;10355;53.688;10.078;2022-12-19T07:35:41;14.27;;;6.43;;
20391;SDS011;10355;53.688;10.078;2022-12-19T07:38:23;11.30;;;6.40;;
20391;SDS011;10355;53.688;10.078;2022-12-19T07:41:06;12.55;;;6.63;;
20391;SDS011;10355;53.688;10.078;2022-12-19T07:43:50;12.77;;;6.18;;
20391;SDS011;10355;53.688;10.078;2022-12-19T07:46:33;11.98;;;6.25;;
20391;SDS011;10355;53.688;10.078;2022-12-19T07:49:16;12.77;;;6.32;;
20391;SDS011;10355;53.688;10.078;2022-12-19T07:52:03;12.25;;;6.28;;
20391;SDS011;10355;53.688;10.078;2022-12-19T07:54:46;11.52;;;6.07;;
20391;SDS011;10355;53.688;10.078;2022-12-19T07:57:28;12.18;;;6.45;;
20391;SDS011;10355;53.688;10.078;2022-12-19T08:00:13;13.00;;;6.35;;
20391;SDS011;10355;53.688;10.078;2022-12-19T08:02:57;12.43;;;5.80;;
20391;SDS011;10355;53.688;10.078;2022-12-19T08:05:39;12.40;;;6.15;;
20391;SDS011;10355;53.688;10.078;2022-12-19T08:08:22;13.90;;;6.75;;
20391;SDS011;10355;53.688;10.078;2022-12-19T08:11:06;10.68;;;6.28;;
20391;SDS011;10355;53.688;10.078;2022-12-19T08:13:49;11.25;;;6.57;;
20391;SDS011;10355;53.688;10.078;2022-12-19T08:16:33;12.50;;;6.78;;
20391;SDS011;10355;53.688;10.078;2022-12-19T08:19:36;12.65;;;6.55;;
20391;SDS011;10355;53.688;10.078;2022-12-19T08:22:19;13.85;;;6.93;;
20391;SDS011;10355;53.688;10.078;2022-12-19T08:25:02;11.40;;;5.47;;
20391;SDS011;10355;53.688;10.078;2022-12-19T08:27:46;10.88;;;5.50;;
20391;SDS011;10355;53.688;10.078;2022-12-19T08:30:28;11.77;;;6.30;;
20391;SDS011;10355;53.688;10.078;2022-12-19T08:33:13;12.75;;;6.68;;
20391;SDS011;10355;53.688;10.078;2022-12-19T08:35:55;11.77;;;6.15;;
20391;SDS011;10355;53.688;10.078;2022-12-19T08:38:38;11.90;;;6.35;;
20391;SDS011;10355;53.688;10.078;2022-12-19T08:41:21;12.75;;;6.22;;
20391;SDS011;10355;53.688;10.078;2022-12-19T08:44:03;12.57;;;6.53;;
20391;SDS011;10355;53.688;10.078;2022-12-19T08:46:47;15.43;;;6.55;;
20391;SDS011;10355;53.688;10.078;2022-12-19T08:49:32;12.00;;;6.07;;
20391;SDS011;10355;53.688;10.078;2022-12-19T08:52:15;13.38;;;6.30;;
20391;SDS011;10355;53.688;10.078;2022-12-19T08:54:58;11.95;;;5.93;;
20391;SDS011;10355;53.688;10.078;2022-12-19T08:57:41;10.25;;;5.60;;
20391;SDS011;10355;53.688;10.078;2022-12-19T09:00:23;13.20;;;6.70;;
20391;SDS011;10355;53.688;10.078;2022-12-19T09:03:07;11.65;;;6.32;;
20391;SDS011;10355;53.688;10.078;2022-12-19T09:05:56;11.00;;;6.13;;
20391;SDS011;10355;53.688;10.078;2022-12-19T09:08:50;12.05;;;6.20;;
20391;SDS011;10355;53.688;10.078;2022-12-19T09:11:40;10.52;;;5.75;;
20391;SDS011;10355;53.688;10.078;2022-12-19T09:14:31;11.20;;;6.03;;
20391;SDS011;10355;53.688;10.078;2022-12-19T09:17:13;12.60;;;6.32;;
20391;SDS011;10355;53.688;10.078;2022-12-19T09:19:56;12.63;;;6.10;;
20391;SDS011;10355;53.688;10.078;2022-12-19T09:22:40;12.23;;;6.30;;
20391;SDS011;10355;53.688;10.078;2022-12-19T09:25:23;11.13;;;6.30;;
20391;SDS011;10355;53.688;10.078;2022-12-19T09:28:06;12.23;;;6.38;;
20391;SDS011;10355;53.688;10.078;2022-12-19T09:31:09;11.68;;;6.65;;
20391;SDS011;10355;53.688;10.078;2022-12-19T09:33:53;10.70;;;5.82;;
20391;SDS011;10355;53.688;10.078;2022-12-19T09:36:35;12.13;;;6.15;;
20391;SDS011;10355;53.688;10.078;2022-12-19T09:39:19;12.45;;;6.63;;
20391;SDS011;10355;53.688;10.078;2022-12-19T09:45:27;12.10;;;6.40;;
20391;SDS011;10355;53.688;10.078;2022-12-19T09:48:13;11.70;;;6.15;;
20391;SDS011;10355;53.688;10.078;2022-12-19T09:51:06;11.07;;;6.10;;
20391;SDS011;10355;53.688;10.078;2022-12-19T09:53:54;13.32;;;6.53;;
20391;SDS011;10355;53.688;10.078;2022-12-19T09:56:42;12.55;;;6.47;;
20391;SDS011;10355;53.688;10.078;2022-12-19T09:59:27;11.30;;;6.45;;
20391;SDS011;10355;53.688;10.078;2022-12-19T10:02:29;10.30;;;5.70;;
20391;SDS011;10355;53.688;10.078;2022-12-19T10:05:15;10.82;;;5.93;;
20391;SDS011;10355;53.688;10.078;2022-12-19T10:08:20;11.90;;;5.90;;
20391;SDS011;10355;53.688;10.078;2022-12-19T10:11:07;15.20;;;6.57;;
20391;SDS011;10355;53.688;10.078;2022-12-19T10:14:15;11.07;;;6.22;;
20391;SDS011;10355;53.688;10.078;2022-12-19T10:17:05;11.50;;;5.80;;
20391;SDS011;10355;53.688;10.078;2022-12-19T10:20:12;10.48;;;6.25;;
20391;SDS011;10355;53.688;10.078;2022-12-19T10:23:00;12.95;;;6.13;;
20391;SDS011;10355;53.688;10.078;2022-12-19T10:25:49;10.00;;;5.35;;
20391;SDS011;10355;53.688;10.078;2022-12-19T10:28:40;8.90;;;5.13;;
20391;SDS011;10355;53.688;10.078;2022-12-19T10:31:33;11.18;;;5.60;;
20391;SDS011;10355;53.688;10.078;2022-12-19T10:34:18;11.80;;;5.40;;
20391;SDS011;10355;53.688;10.078;2022-12-19T10:37:06;9.50;;;5.32;;
20391;SDS011;10355;53.688;10.078;2022-12-19T10:40:10;8.88;;;5.28;;
20391;SDS011;10355;53.688;10.078;2022-12-19T10:43:10;7.50;;;4.55;;
20391;SDS011;10355;53.688;10.078;2022-12-19T10:46:09;8.43;;;4.65;;
20391;SDS011;10355;53.688;10.078;2022-12-19T10:48:54;11.90;;;5.15;;
20391;SDS011;10355;53.688;10.078;2022-12-19T10:51:37;9.00;;;5.28;;
20391;SDS011;10355;53.688;10.078;2022-12-19T10:54:20;9.00;;;4.78;;
20391;SDS011;10355;53.688;10.078;2022-12-19T10:57:17;9.30;;;5.43;;
20391;SDS011;10355;53.688;10.078;2022-12-19T11:00:02;9.32;;;5.40;;
20391;SDS011;10355;53.688;10.078;2022-12-19T11:02:46;9.13;;;5.00;;
20391;SDS011;10355;53.688;10.078;2022-12-19T11:05:40;8.90;;;5.07;;
20391;SDS011;10355;53.688;10.078;2022-12-19T11:08:24;9.43;;;4.95;;
20391;SDS011;10355;53.688;10.078;2022-12-19T11:11:09;9.13;;;5.05;;
20391;SDS011;10355;53.688;10.078;2022-12-19T11:14:21;10.88;;;5.03;;
20391;SDS011;10355;53.688;10.078;2022-12-19T11:17:26;9.10;;;5.25;;
20391;SDS011;10355;53.688;10.078;2022-12-19T11:20:28;10.35;;;5.40;;
20391;SDS011;10355;53.688;10.078;2022-12-19T11:23:33;9.15;;;5.25;;
20391;SDS011;10355;53.688;10.078;2022-12-19T11:26:40;8.95;;;5.43;;
20391;SDS011;10355;53.688;10.078;2022-12-19T11:29:44;9.50;;;5.30;;
20391;SDS011;10355;53.688;10.078;2022-12-19T11:32:47;9.13;;;5.45;;
20391;SDS011;10355;53.688;10.078;2022-12-19T11:35:31;11.93;;;5.63;;
20391;SDS011;10355;53.688;10.078;2022-12-19T11:38:19;9.10;;;5.18;;
20391;SDS011;10355;53.688;10.078;2022-12-19T11:41:08;8.80;;;5.50;;
20391;SDS011;10355;53.688;10.078;2022-12-19T11:43:52;9.60;;;4.90;;
20391;SDS011;10355;53.688;10.078;2022-12-19T11:46:41;8.35;;;5.03;;
20391;SDS011;10355;53.688;10.078;2022-12-19T11:49:27;7.65;;;4.70;;
20391;SDS011;10355;53.688;10.078;2022-12-19T11:52:14;8.43;;;4.55;;
20391;SDS011;10355;53.688;10.078;2022-12-19T11:55:20;6.43;;;4.43;;
20391;SDS011;10355;53.688;10.078;2022-12-19T11:58:07;7.85;;;4.32;;
20391;SDS011;10355;53.688;10.078;2022-12-19T12:00:51;7.05;;;4.78;;
20391;SDS011;10355;53.688;10.078;2022-12-19T12:03:41;8.25;;;4.60;;
20391;SDS011;10355;53.688;10.078;2022-12-19T12:06:44;7.45;;;4.50;;
20391;SDS011;10355;53.688;10.078;2022-12-19T12:09:30;7.60;;;4.30;;
20391;SDS011;10355;53.688;10.078;2022-12-19T12:12:38;6.85;;;4.53;;
20391;SDS011;10355;53.688;10.078;2022-12-19T12:15:47;7.13;;;4.30;;
20391;SDS011;10355;53.688;10.078;2022-12-19T12:18:55;6.18;;;4.30;;
20391;SDS011;10355;53.688;10.078;2022-12-19T12:22:04;7.63;;;4.43;;
20391;SDS011;10355;53.688;10.078;2022-12-19T12:25:16;7.35;;;4.55;;
20391;SDS011;10355;53.688;10.078;2022-12-19T12:28:33;8.52;;;4.57;;
20391;SDS011;10355;53.688;10.078;2022-12-19T12:31:56;7.35;;;4.32;;
20391;SDS011;10355;53.688;10.078;2022-12-19T12:35:03;6.25;;;4.32;;
20391;SDS011;10355;53.688;10.078;2022-12-19T12:38:14;8.07;;;4.85;;
20391;SDS011;10355;53.688;10.078;2022-12-19T12:41:13;6.53;;;4.40;;
20391;SDS011;10355;53.688;10.078;2022-12-19T12:44:00;8.23;;;4.47;;
20391;SDS011;10355;53.688;10.078;2022-12-19T12:46:47;7.15;;;4.30;;
20391;SDS011;10355;53.688;10.078;2022-12-19T12:49:36;7.88;;;4.78;;
20391;SDS011;10355;53.688;10.078;2022-12-19T12:52:20;7.22;;;5.03;;
20391;SDS011;10355;53.688;10.078;2022-12-19T12:55:11;8.27;;;4.88;;
20391;SDS011;10355;53.688;10.078;2022-12-19T12:57:57;8.32;;;4.85;;
20391;SDS011;10355;53.688;10.078;2022-12-19T13:00:40;8.35;;;4.78;;
20391;SDS011;10355;53.688;10.078;2022-12-19T13:03:49;8.13;;;4.68;;
20391;SDS011;10355;53.688;10.078;2022-12-19T13:06:34;8.32;;;5.10;;
20391;SDS011;10355;53.688;10.078;2022-12-19T13:09:19;7.68;;;4.85;;
20391;SDS011;10355;53.688;10.078;2022-12-19T13:12:11;9.50;;;4.97;;
20391;SDS011;10355;53.688;10.078;2022-12-19T13:15:29;8.00;;;4.82;;
20391;SDS011;10355;53.688;10.078;2022-12-19T13:21:18;7.40;;;4.75;;
20391;SDS011;10355;53.688;10.078;2022-12-19T13:24:19;7.85;;;4.45;;
20391;SDS011;10355;53.688;10.078;2022-12-19T13:27:02;7.82;;;5.07;;
20391;SDS011;10355;53.688;10.078;2022-12-19T13:29:52;8.52;;;5.00;;
20391;SDS011;10355;53.688;10.078;2022-12-19T13:33:04;7.53;;;4.80;;
20391;SDS011;10355;53.688;10.078;2022-12-19T13:35:45;7.35;;;4.75;;
20391;SDS011;10355;53.688;10.078;2022-12-19T13:38:48;9.55;;;5.20;;
20391;SDS011;10355;53.688;10.078;2022-12-19T13:41:54;8.10;;;5.30;;
20391;SDS011;10355;53.688;10.078;2022-12-19T13:44:59;7.63;;;4.97;;
20391;SDS011;10355;53.688;10.078;2022-12-19T13:47:43;8.40;;;5.13;;
20391;SDS011;10355;53.688;10.078;2022-12-19T13:50:27;8.05;;;4.40;;
20391;SDS011;10355;53.688;10.078;2022-12-19T13:53:13;9.38;;;5.40;;
20391;SDS011;10355;53.688;10.078;2022-12-19T13:55:58;9.07;;;5.22;;
20391;SDS011;10355;53.688;10.078;2022-12-19T13:58:44;7.55;;;5.10;;
20391;SDS011;10355;53.688;10.078;2022-12-19T14:01:29;8.02;;;5.20;;
20391;SDS011;10355;53.688;10.078;2022-12-19T14:04:15;9.50;;;5.22;;
20391;SDS011;10355;53.688;10.078;2022-12-19T14:07:05;8.18;;;5.18;;
20391;SDS011;10355;53.688;10.078;2022-12-19T14:09:48;7.85;;;4.85;;
20391;SDS011;10355;53.688;10.078;2022-12-19T14:12:52;11.15;;;5.20;;
20391;SDS011;10355;53.688;10.078;2022-12-19T14:16:14;9.65;;;5.10;;
20391;SDS011;10355;53.688;10.078;2022-12-19T14:18:58;10.27;;;5.20;;
20391;SDS011;10355;53.688;10.078;2022-12-19T14:21:41;8.20;;;4.93;;
20391;SDS011;10355;53.688;10.078;2022-12-19T14:24:51;8.95;;;5.53;;
20391;SDS011;10355;53.688;10.078;2022-12-19T14:27:35;9.23;;;5.03;;
20391;SDS011;10355;53.688;10.078;2022-12-19T14:30:39;8.60;;;5.03;;
20391;SDS011;10355;53.688;10.078;2022-12-19T14:33:29;7.85;;;4.75;;
20391;SDS011;10355;53.688;10.078;2022-12-19T14:36:33;9.00;;;5.32;;
20391;SDS011;10355;53.688;10.078;2022-12-19T14:39:18;8.85;;;5.45;;
20391;SDS011;10355;53.688;10.078;2022-12-19T14:42:11;11.02;;;5.15;;
20391;SDS011;10355;53.688;10.078;2022-12-19T14:45:34;10.02;;;4.80;;
20391;SDS011;10355;53.688;10.078;2022-12-19T14:48:45;11.38;;;5.68;;
20391;SDS011;10355;53.688;10.078;2022-12-19T14:51:49;8.18;;;5.53;;
20391;SDS011;10355;53.688;10.078;2022-12-19T14:58:09;9.05;;;5.13;;
20391;SDS011;10355;53.688;10.078;2022-12-19T15:01:18;9.55;;;5.10;;
20391;SDS011;10355;53.688;10.078;2022-12-19T15:04:06;10.13;;;5.55;;
20391;SDS011;10355;53.688;10.078;2022-12-19T15:07:12;10.95;;;5.47;;
20391;SDS011;10355;53.688;10.078;2022-12-19T15:09:56;9.65;;;5.65;;
20391;SDS011;10355;53.688;10.078;2022-12-19T15:13:00;9.13;;;5.28;;
20391;SDS011;10355;53.688;10.078;2022-12-19T15:16:25;11.88;;;5.75;;
20391;SDS011;10355;53.688;10.078;2022-12-19T15:19:11;11.50;;;5.50;;
20391;SDS011;10355;53.688;10.078;2022-12-19T15:21:54;11.25;;;5.93;;
20391;SDS011;10355;53.688;10.078;2022-12-19T15:24:37;11.02;;;5.63;;
20391;SDS011;10355;53.688;10.078;2022-12-19T15:27:20;11.70;;;6.20;;
20391;SDS011;10355;53.688;10.078;2022-12-19T15:30:04;10.05;;;6.05;;
20391;SDS011;10355;53.688;10.078;2022-12-19T15:32:53;11.32;;;5.82;;
20391;SDS011;10355;53.688;10.078;2022-12-19T15:35:37;12.00;;;6.43;;
20391;SDS011;10355;53.688;10.078;2022-12-19T15:38:20;11.60;;;6.10;;
20391;SDS011;10355;53.688;10.078;2022-12-19T15:41:03;12.05;;;6.28;;
20391;SDS011;10355;53.688;10.078;2022-12-19T15:43:54;11.43;;;5.90;;
20391;SDS011;10355;53.688;10.078;2022-12-19T15:46:46;9.45;;;5.30;;
20391;SDS011;10355;53.688;10.078;2022-12-19T15:49:30;9.70;;;5.63;;
20391;SDS011;10355;53.688;10.078;2022-12-19T15:52:17;10.63;;;5.68;;
20391;SDS011;10355;53.688;10.078;2022-12-19T15:55:00;9.82;;;5.85;;
20391;SDS011;10355;53.688;10.078;2022-12-19T15:57:43;9.38;;;5.20;;
20391;SDS011;10355;53.688;10.078;2022-12-19T16:00:27;9.38;;;5.70;;
20391;SDS011;10355;53.688;10.078;2022-12-19T16:03:10;11.48;;;5.75;;
20391;SDS011;10355;53.688;10.078;2022-12-19T16:06:07;8.93;;;5.68;;
20391;SDS011;10355;53.688;10.078;2022-12-19T16:08:53;9.68;;;5.45;;
20391;SDS011;10355;53.688;10.078;2022-12-19T16:11:36;9.63;;;5.55;;
20391;SDS011;10355;53.688;10.078;2022-12-19T16:14:19;10.77;;;5.50;;
20391;SDS011;10355;53.688;10.078;2022-12-19T16:17:02;8.63;;;5.47;;
20391;SDS011;10355;53.688;10.078;2022-12-19T16:19:44;8.43;;;5.55;;
20391;SDS011;10355;53.688;10.078;2022-12-19T16:22:28;9.20;;;6.35;;
20391;SDS011;10355;53.688;10.078;2022-12-19T16:25:12;10.70;;;6.05;;
20391;SDS011;10355;53.688;10.078;2022-12-19T16:27:55;12.52;;;6.25;;
20391;SDS011;10355;53.688;10.078;2022-12-19T16:30:39;9.32;;;5.97;;
20391;SDS011;10355;53.688;10.078;2022-12-19T16:33:25;9.68;;;5.70;;
20391;SDS011;10355;53.688;10.078;2022-12-19T16:36:09;9.43;;;5.88;;
20391;SDS011;10355;53.688;10.078;2022-12-19T16:38:52;8.98;;;5.43;;
20391;SDS011;10355;53.688;10.078;2022-12-19T16:41:36;8.60;;;5.22;;
20391;SDS011;10355;53.688;10.078;2022-12-19T16:44:23;10.00;;;5.97;;